Clophill, United Kingdom
Current Conditions -  °F | °C
As of 5:20 AM on Sunday 26 Oct 2014 (Local Time) from EGGW Reporting Station
Broken Clouds Broken Clouds  
Wind Chill: 50°   Ceiling: 3200
Heat Index: 50°   Visibility: 6mi
Dew Point: 46°   Wind: 8mph
Humidity: 87%   Direction: 210°SSW
Pressure: 30.12"   Gusts: NA
Location:  52.03°N, 0.42°W
Report Text: EGGW 260420Z 21007KT 9999 BKN032 10/08 Q1020
Loading
Personal Weather Stations






























Interactive Weather Map
Tropical Storm Tracking
New forecast layout! Learn more

10-Day Weather Forecast

Advertisements
Track Severe Weather on mobile